ADDS METAR Data INFO
IDs: Format: Raw Decoded Include TAF

Data at: 0746 UTC 21 Nov 2017

METAR for:K6B9 (Skaneateles Arpt, NY, US)
Text:K6B9 210735Z AUTO 20007G13KT 170V230 10SM CLR 04/M04 A2991 RMK AO2
Temperature: 4.0°C ( 39°F)
Dewpoint: -4.0°C ( 25°F) [RH = 56%]
Pressure (altimeter):29.91 inches Hg (1013.0 mb)
Winds:from the SSW (200 degrees) at 8 MPH (7 knots; 3.6 m/s) gusting to 15 MPH (13 knots; 6.7 m/s)
Visibility:10 or more sm (16+ km)
Ceiling:at least 12,000 feet AGL
Clouds:sky clear below 12,000 feet AGL
QC Flag:automated observation with no human augmentation
Text:K6B9 210715Z AUTO 19007KT 150V210 10SM CLR 04/M05 A2992 RMK AO2
Temperature: 4.0°C ( 39°F)
Dewpoint: -5.0°C ( 23°F) [RH = 52%]
Pressure (altimeter):29.92 inches Hg (1013.3 mb)
Winds:from the S (190 degrees) at 8 MPH (7 knots; 3.6 m/s)
Visibility:10 or more sm (16+ km)
Ceiling:at least 12,000 feet AGL
Clouds:sky clear below 12,000 feet AGL
QC Flag:automated observation with no human augmentation
Text:K6B9 210655Z AUTO 18006G12KT 10SM CLR 03/M04 A2992 RMK AO2
Temperature: 3.0°C ( 37°F)
Dewpoint: -4.0°C ( 25°F) [RH = 60%]
Pressure (altimeter):29.92 inches Hg (1013.3 mb)
Winds:from the S (180 degrees) at 7 MPH (6 knots; 3.1 m/s) gusting to 14 MPH (12 knots; 6.2 m/s)
Visibility:10 or more sm (16+ km)
Ceiling:at least 12,000 feet AGL
Clouds:sky clear below 12,000 feet AGL
QC Flag:automated observation with no human augmentation
Text:K6B9 210635Z AUTO 18006KT 10SM CLR 03/M04 A2992 RMK AO2
Temperature: 3.0°C ( 37°F)
Dewpoint: -4.0°C ( 25°F) [RH = 60%]
Pressure (altimeter):29.92 inches Hg (1013.3 mb)
Winds:from the S (180 degrees) at 7 MPH (6 knots; 3.1 m/s)
Visibility:10 or more sm (16+ km)
Ceiling:at least 12,000 feet AGL
Clouds:sky clear below 12,000 feet AGL
QC Flag:automated observation with no human augmentation
Text:K6B9 210615Z AUTO VRB04KT 10SM CLR 03/M04 A2992 RMK AO2
Temperature: 3.0°C ( 37°F)
Dewpoint: -4.0°C ( 25°F) [RH = 60%]
Pressure (altimeter):29.92 inches Hg (1013.3 mb)
Winds:variable direction winds at 5 MPH (4 knots; 2.1 m/s)
Visibility:10 or more sm (16+ km)
Ceiling:at least 12,000 feet AGL
Clouds:sky clear below 12,000 feet AGL
QC Flag:automated observation with no human augmentation
Text:K6B9 210555Z AUTO 17005G10KT 10SM CLR 03/M04 A2992 RMK AO2
Temperature: 3.0°C ( 37°F)
Dewpoint: -4.0°C ( 25°F) [RH = 60%]
Pressure (altimeter):29.92 inches Hg (1013.3 mb)
Winds:from the S (170 degrees) at 6 MPH (5 knots; 2.6 m/s) gusting to 12 MPH (10 knots; 5.1 m/s)
Visibility:10 or more sm (16+ km)
Ceiling:at least 12,000 feet AGL
Clouds:sky clear below 12,000 feet AGL
QC Flag:automated observation with no human augmentation
Text:K6B9 210535Z AUTO 18007G13KT 150V220 10SM CLR 03/M04 A2992 RMK AO2
Temperature: 3.0°C ( 37°F)
Dewpoint: -4.0°C ( 25°F) [RH = 60%]
Pressure (altimeter):29.92 inches Hg (1013.3 mb)
Winds:from the S (180 degrees) at 8 MPH (7 knots; 3.6 m/s) gusting to 15 MPH (13 knots; 6.7 m/s)
Visibility:10 or more sm (16+ km)
Ceiling:at least 12,000 feet AGL
Clouds:sky clear below 12,000 feet AGL
QC Flag:automated observation with no human augmentation
Text:K6B9 210515Z AUTO 18007G14KT 10SM CLR 03/M04 A2993 RMK AO2
Temperature: 3.0°C ( 37°F)
Dewpoint: -4.0°C ( 25°F) [RH = 60%]
Pressure (altimeter):29.93 inches Hg (1013.6 mb)
Winds:from the S (180 degrees) at 8 MPH (7 knots; 3.6 m/s) gusting to 16 MPH (14 knots; 7.2 m/s)
Visibility:10 or more sm (16+ km)
Ceiling:at least 12,000 feet AGL
Clouds:sky clear below 12,000 feet AGL
QC Flag:automated observation with no human augmentation
Text:K6B9 210455Z AUTO VRB06G13KT 10SM CLR 03/M04 A2993 RMK AO2
Temperature: 3.0°C ( 37°F)
Dewpoint: -4.0°C ( 25°F) [RH = 60%]
Pressure (altimeter):29.93 inches Hg (1013.6 mb)
Winds:variable direction winds at 7 MPH (6 knots; 3.1 m/s) gusting to 15 MPH (13 knots; 6.7 m/s)
Visibility:10 or more sm (16+ km)
Ceiling:at least 12,000 feet AGL
Clouds:sky clear below 12,000 feet AGL
QC Flag:automated observation with no human augmentation
Text:K6B9 210435Z AUTO 20007KT 170V240 10SM CLR 03/M04 A2993 RMK AO2
Temperature: 3.0°C ( 37°F)
Dewpoint: -4.0°C ( 25°F) [RH = 60%]
Pressure (altimeter):29.93 inches Hg (1013.6 mb)
Winds:from the SSW (200 degrees) at 8 MPH (7 knots; 3.6 m/s)
Visibility:10 or more sm (16+ km)
Ceiling:at least 12,000 feet AGL
Clouds:sky clear below 12,000 feet AGL
QC Flag:automated observation with no human augmentation
Text:K6B9 210415Z AUTO 20006G12KT 10SM CLR 03/M04 A2993 RMK AO2
Temperature: 3.0°C ( 37°F)
Dewpoint: -4.0°C ( 25°F) [RH = 60%]
Pressure (altimeter):29.93 inches Hg (1013.6 mb)
Winds:from the SSW (200 degrees) at 7 MPH (6 knots; 3.1 m/s) gusting to 14 MPH (12 knots; 6.2 m/s)
Visibility:10 or more sm (16+ km)
Ceiling:at least 12,000 feet AGL
Clouds:sky clear below 12,000 feet AGL
QC Flag:automated observation with no human augmentation
Text:K6B9 210355Z AUTO 20006KT 10SM CLR 02/M04 A2993 RMK AO2
Temperature: 2.0°C ( 36°F)
Dewpoint: -4.0°C ( 25°F) [RH = 64%]
Pressure (altimeter):29.93 inches Hg (1013.6 mb)
Winds:from the SSW (200 degrees) at 7 MPH (6 knots; 3.1 m/s)
Visibility:10 or more sm (16+ km)
Ceiling:at least 12,000 feet AGL
Clouds:sky clear below 12,000 feet AGL
QC Flag:automated observation with no human augmentation
Text:K6B9 210335Z AUTO VRB05G11KT 10SM CLR 02/M04 A2994 RMK AO2
Temperature: 2.0°C ( 36°F)
Dewpoint: -4.0°C ( 25°F) [RH = 64%]
Pressure (altimeter):29.94 inches Hg (1014.0 mb)
Winds:variable direction winds at 6 MPH (5 knots; 2.6 m/s) gusting to 13 MPH (11 knots; 5.7 m/s)
Visibility:10 or more sm (16+ km)
Ceiling:at least 12,000 feet AGL
Clouds:sky clear below 12,000 feet AGL
QC Flag:automated observation with no human augmentation
Text:K6B9 210315Z AUTO VRB04G10KT 10SM CLR 02/M04 A2994 RMK AO2
Temperature: 2.0°C ( 36°F)
Dewpoint: -4.0°C ( 25°F) [RH = 64%]
Pressure (altimeter):29.94 inches Hg (1014.0 mb)
Winds:variable direction winds at 5 MPH (4 knots; 2.1 m/s) gusting to 12 MPH (10 knots; 5.1 m/s)
Visibility:10 or more sm (16+ km)
Ceiling:at least 12,000 feet AGL
Clouds:sky clear below 12,000 feet AGL
QC Flag:automated observation with no human augmentation
Text:K6B9 210255Z AUTO VRB05KT 10SM CLR 02/M04 A2995 RMK AO2
Temperature: 2.0°C ( 36°F)
Dewpoint: -4.0°C ( 25°F) [RH = 64%]
Pressure (altimeter):29.95 inches Hg (1014.3 mb)
Winds:variable direction winds at 6 MPH (5 knots; 2.6 m/s)
Visibility:10 or more sm (16+ km)
Ceiling:at least 12,000 feet AGL
Clouds:sky clear below 12,000 feet AGL
QC Flag:automated observation with no human augmentation
Text:K6B9 210235Z AUTO 20006KT 10SM CLR 02/M04 A2995 RMK AO2
Temperature: 2.0°C ( 36°F)
Dewpoint: -4.0°C ( 25°F) [RH = 64%]
Pressure (altimeter):29.95 inches Hg (1014.3 mb)
Winds:from the SSW (200 degrees) at 7 MPH (6 knots; 3.1 m/s)
Visibility:10 or more sm (16+ km)
Ceiling:at least 12,000 feet AGL
Clouds:sky clear below 12,000 feet AGL
QC Flag:automated observation with no human augmentation
Text:K6B9 210215Z AUTO 20005KT 10SM CLR 02/M03 A2995 RMK AO2
Temperature: 2.0°C ( 36°F)
Dewpoint: -3.0°C ( 27°F) [RH = 69%]
Pressure (altimeter):29.95 inches Hg (1014.3 mb)
Winds:from the SSW (200 degrees) at 6 MPH (5 knots; 2.6 m/s)
Visibility:10 or more sm (16+ km)
Ceiling:at least 12,000 feet AGL
Clouds:sky clear below 12,000 feet AGL
QC Flag:automated observation with no human augmentation
Text:K6B9 210155Z AUTO 20005G10KT 10SM FEW120 02/M03 A2996 RMK AO2
Temperature: 2.0°C ( 36°F)
Dewpoint: -3.0°C ( 27°F) [RH = 69%]
Pressure (altimeter):29.96 inches Hg (1014.6 mb)
Winds:from the SSW (200 degrees) at 6 MPH (5 knots; 2.6 m/s) gusting to 12 MPH (10 knots; 5.1 m/s)
Visibility:10 or more sm (16+ km)
Ceiling:at least 12,000 feet AGL
Clouds: few clouds at 12000 feet AGL
QC Flag:automated observation with no human augmentation
Text:K6B9 210135Z AUTO VRB05KT 10SM CLR 02/M03 A2996 RMK AO2
Temperature: 2.0°C ( 36°F)
Dewpoint: -3.0°C ( 27°F) [RH = 69%]
Pressure (altimeter):29.96 inches Hg (1014.6 mb)
Winds:variable direction winds at 6 MPH (5 knots; 2.6 m/s)
Visibility:10 or more sm (16+ km)
Ceiling:at least 12,000 feet AGL
Clouds:sky clear below 12,000 feet AGL
QC Flag:automated observation with no human augmentation
Text:K6B9 210115Z AUTO VRB04KT 10SM CLR 02/M03 A2996 RMK AO2
Temperature: 2.0°C ( 36°F)
Dewpoint: -3.0°C ( 27°F) [RH = 69%]
Pressure (altimeter):29.96 inches Hg (1014.6 mb)
Winds:variable direction winds at 5 MPH (4 knots; 2.1 m/s)
Visibility:10 or more sm (16+ km)
Ceiling:at least 12,000 feet AGL
Clouds:sky clear below 12,000 feet AGL
QC Flag:automated observation with no human augmentation
Text:K6B9 210055Z AUTO 21004KT 10SM CLR 02/M03 A2996 RMK AO2
Temperature: 2.0°C ( 36°F)
Dewpoint: -3.0°C ( 27°F) [RH = 69%]
Pressure (altimeter):29.96 inches Hg (1014.6 mb)
Winds:from the SSW (210 degrees) at 5 MPH (4 knots; 2.1 m/s)
Visibility:10 or more sm (16+ km)
Ceiling:at least 12,000 feet AGL
Clouds:sky clear below 12,000 feet AGL
QC Flag:automated observation with no human augmentation
Text:K6B9 210035Z AUTO 21006KT 10SM FEW100 02/M02 A2996 RMK AO2
Temperature: 2.0°C ( 36°F)
Dewpoint: -2.0°C ( 28°F) [RH = 75%]
Pressure (altimeter):29.96 inches Hg (1014.6 mb)
Winds:from the SSW (210 degrees) at 7 MPH (6 knots; 3.1 m/s)
Visibility:10 or more sm (16+ km)
Ceiling:at least 12,000 feet AGL
Clouds: few clouds at 10000 feet AGL
QC Flag:automated observation with no human augmentation
Text:K6B9 210015Z AUTO 20004KT 10SM BKN110 02/M02 A2997 RMK AO2
Temperature: 2.0°C ( 36°F)
Dewpoint: -2.0°C ( 28°F) [RH = 75%]
Pressure (altimeter):29.97 inches Hg (1015.0 mb)
Winds:from the SSW (200 degrees) at 5 MPH (4 knots; 2.1 m/s)
Visibility:10 or more sm (16+ km)
Ceiling:11000 feet AGL
Clouds: broken clouds at 11000 feet AGL
QC Flag:automated observation with no human augmentation
Text:K6B9 202355Z AUTO 21005KT 10SM BKN110 02/M02 A2996 RMK AO2
Temperature: 2.0°C ( 36°F)
Dewpoint: -2.0°C ( 28°F) [RH = 75%]
Pressure (altimeter):29.96 inches Hg (1014.6 mb)
Winds:from the SSW (210 degrees) at 6 MPH (5 knots; 2.6 m/s)
Visibility:10 or more sm (16+ km)
Ceiling:11000 feet AGL
Clouds: broken clouds at 11000 feet AGL
QC Flag:automated observation with no human augmentation
Text:K6B9 202335Z AUTO 21004KT 10SM SCT110 02/M02 A2996 RMK AO2
Temperature: 2.0°C ( 36°F)
Dewpoint: -2.0°C ( 28°F) [RH = 75%]
Pressure (altimeter):29.96 inches Hg (1014.6 mb)
Winds:from the SSW (210 degrees) at 5 MPH (4 knots; 2.1 m/s)
Visibility:10 or more sm (16+ km)
Ceiling:at least 12,000 feet AGL
Clouds: scattered clouds at 11000 feet AGL
QC Flag:automated observation with no human augmentation
Text:K6B9 202315Z AUTO 21005KT 10SM BKN110 01/M02 A2996 RMK AO2
Temperature: 1.0°C ( 34°F)
Dewpoint: -2.0°C ( 28°F) [RH = 80%]
Pressure (altimeter):29.96 inches Hg (1014.6 mb)
Winds:from the SSW (210 degrees) at 6 MPH (5 knots; 2.6 m/s)
Visibility:10 or more sm (16+ km)
Ceiling:11000 feet AGL
Clouds: broken clouds at 11000 feet AGL
QC Flag:automated observation with no human augmentation
Text:K6B9 202255Z AUTO 21005KT 10SM SCT110 00/M02 A2996 RMK AO2
Temperature: 0.0°C ( 32°F)
Dewpoint: -2.0°C ( 28°F) [RH = 86%]
Pressure (altimeter):29.96 inches Hg (1014.6 mb)
Winds:from the SSW (210 degrees) at 6 MPH (5 knots; 2.6 m/s)
Visibility:10 or more sm (16+ km)
Ceiling:at least 12,000 feet AGL
Clouds: scattered clouds at 11000 feet AGL
QC Flag:automated observation with no human augmentation
Text:K6B9 202235Z AUTO 00000KT 10SM FEW120 00/M02 A2996 RMK AO2
Temperature: 0.0°C ( 32°F)
Dewpoint: -2.0°C ( 28°F) [RH = 86%]
Pressure (altimeter):29.96 inches Hg (1014.6 mb)
Winds:calm
Visibility:10 or more sm (16+ km)
Ceiling:at least 12,000 feet AGL
Clouds: few clouds at 12000 feet AGL
QC Flag:automated observation with no human augmentation
Text:K6B9 202215Z AUTO 00000KT 10SM CLR 00/M02 A2996 RMK AO2
Temperature: 0.0°C ( 32°F)
Dewpoint: -2.0°C ( 28°F) [RH = 86%]
Pressure (altimeter):29.96 inches Hg (1014.6 mb)
Winds:calm
Visibility:10 or more sm (16+ km)
Ceiling:at least 12,000 feet AGL
Clouds:sky clear below 12,000 feet AGL
QC Flag:automated observation with no human augmentation
Text:K6B9 202155Z AUTO 00000KT 10SM FEW031 00/M02 A2996 RMK AO2
Temperature: 0.0°C ( 32°F)
Dewpoint: -2.0°C ( 28°F) [RH = 86%]
Pressure (altimeter):29.96 inches Hg (1014.6 mb)
Winds:calm
Visibility:10 or more sm (16+ km)
Ceiling:at least 12,000 feet AGL
Clouds: few clouds at 3100 feet AGL
QC Flag:automated observation with no human augmentation
Text:K6B9 202135Z AUTO 20004KT 10SM BKN031 01/M01 A2996 RMK AO2
Temperature: 1.0°C ( 34°F)
Dewpoint: -1.0°C ( 30°F) [RH = 86%]
Pressure (altimeter):29.96 inches Hg (1014.6 mb)
Winds:from the SSW (200 degrees) at 5 MPH (4 knots; 2.1 m/s)
Visibility:10 or more sm (16+ km)
Ceiling:3100 feet AGL
Clouds: broken clouds at 3100 feet AGL
QC Flag:automated observation with no human augmentation
Text:K6B9 202115Z AUTO 20004KT 10SM OVC030 01/M01 A2996 RMK AO2
Temperature: 1.0°C ( 34°F)
Dewpoint: -1.0°C ( 30°F) [RH = 86%]
Pressure (altimeter):29.96 inches Hg (1014.6 mb)
Winds:from the SSW (200 degrees) at 5 MPH (4 knots; 2.1 m/s)
Visibility:10 or more sm (16+ km)
Ceiling:3000 feet AGL
Clouds: overcast cloud deck at 3000 feet AGL
QC Flag:automated observation with no human augmentation
Text:K6B9 202055Z AUTO 21004KT 10SM OVC028 01/M01 A2995 RMK AO2
Temperature: 1.0°C ( 34°F)
Dewpoint: -1.0°C ( 30°F) [RH = 86%]
Pressure (altimeter):29.95 inches Hg (1014.3 mb)
Winds:from the SSW (210 degrees) at 5 MPH (4 knots; 2.1 m/s)
Visibility:10 or more sm (16+ km)
Ceiling:2800 feet AGL
Clouds: overcast cloud deck at 2800 feet AGL
QC Flag:automated observation with no human augmentation
Text:K6B9 202035Z AUTO 21004KT 10SM OVC022 01/M01 A2995 RMK AO2
Temperature: 1.0°C ( 34°F)
Dewpoint: -1.0°C ( 30°F) [RH = 86%]
Pressure (altimeter):29.95 inches Hg (1014.3 mb)
Winds:from the SSW (210 degrees) at 5 MPH (4 knots; 2.1 m/s)
Visibility:10 or more sm (16+ km)
Ceiling:2200 feet AGL
Clouds: overcast cloud deck at 2200 feet AGL
QC Flag:automated observation with no human augmentation
Text:K6B9 202015Z AUTO 21004KT 10SM OVC019 01/M01 A2995 RMK AO2
Temperature: 1.0°C ( 34°F)
Dewpoint: -1.0°C ( 30°F) [RH = 86%]
Pressure (altimeter):29.95 inches Hg (1014.3 mb)
Winds:from the SSW (210 degrees) at 5 MPH (4 knots; 2.1 m/s)
Visibility:10 or more sm (16+ km)
Ceiling:1900 feet AGL
Clouds: overcast cloud deck at 1900 feet AGL
QC Flag:automated observation with no human augmentation
Text:K6B9 201955Z AUTO VRB05KT 10SM BKN023 OVC030 00/M01 A2994 RMK AO2
Temperature: 0.0°C ( 32°F)
Dewpoint: -1.0°C ( 30°F) [RH = 93%]
Pressure (altimeter):29.94 inches Hg (1014.0 mb)
Winds:variable direction winds at 6 MPH (5 knots; 2.6 m/s)
Visibility:10 or more sm (16+ km)
Ceiling:2300 feet AGL
Clouds: broken clouds at 2300 feet AGL, overcast cloud deck at 3000 feet AGL
QC Flag:automated observation with no human augmentation